Time;durP1;ratioP1;P1;durP2;ratioP2;P2;SDS_P1;SDS_P2;PMS_P1;PMS_P2;Temp;Humidity;BMP_temperature;BMP_pressure;BME280_temperature;BME280_humidity;BME280_pressure;Samples;Min_cycle;Max_cycle;Signal;HPM_P1;HPM_P2
2023/06/26 00:00:12;;;;;;;13.48;9.55;;;;;;;14.75;71.32;96132.72;2115422;28;20058;-64
2023/06/26 00:01:13;;;;;;;12.90;9.07;;;;;;;14.84;71.51;96147.84;2115287;28;20048;-64
2023/06/26 00:02:15;;;;;;;13.20;9.30;;;;;;;14.84;71.32;96157.47;2115883;28;20051;-64
2023/06/26 00:03:16;;;;;;;12.55;8.98;;;;;;;14.83;71.45;96148.78;2116112;28;20043;-65
2023/06/26 00:04:17;;;;;;;13.88;9.75;;;;;;;14.81;71.47;96150.66;2115796;28;20470;-65
2023/06/26 00:05:18;;;;;;;12.95;9.25;;;;;;;14.78;71.60;96149.06;2115771;28;20047;-65
2023/06/26 00:06:19;;;;;;;12.43;9.52;;;;;;;14.75;71.34;96141.44;2115202;28;20055;-64
2023/06/26 00:07:20;;;;;;;13.23;9.80;;;;;;;14.76;71.20;96148.31;2115886;28;20470;-63
2023/06/26 00:08:21;;;;;;;13.20;9.60;;;;;;;14.77;71.32;96151.78;2106144;28;20506;-64
2023/06/26 00:09:22;;;;;;;13.82;9.13;;;;;;;14.75;71.34;96154.50;2106915;28;20032;-65
2023/06/26 00:10:23;;;;;;;13.90;9.57;;;;;;;14.75;70.93;96153.63;2105818;28;20067;-66
2023/06/26 00:11:27;;;;;;;17.48;9.23;;;;;;;14.75;70.54;96153.63;2115706;28;20489;-65
2023/06/26 00:12:28;;;;;;;13.23;9.75;;;;;;;14.71;70.35;96149.53;2115952;28;20053;-64
2023/06/26 00:13:29;;;;;;;13.98;9.27;;;;;;;14.73;70.91;96158.13;2115771;28;20052;-64
2023/06/26 00:14:30;;;;;;;15.35;9.82;;;;;;;14.72;70.87;96154.66;2114927;28;20051;-66
2023/06/26 00:15:31;;;;;;;13.02;8.65;;;;;;;14.69;71.12;96152.22;2115860;28;20047;-65
2023/06/26 00:16:32;;;;;;;13.32;9.57;;;;;;;14.68;70.92;96161.03;2106269;28;20063;-65
2023/06/26 00:17:37;;;;;;;11.95;9.45;;;;;;;14.68;71.19;96152.34;2106587;28;20055;-65
2023/06/26 00:18:38;;;;;;;12.05;9.00;;;;;;;14.67;70.83;96150.66;2114906;28;20059;-64
2023/06/26 00:19:39;;;;;;;12.65;9.25;;;;;;;14.67;71.50;96158.50;2115859;28;20046;-65
2023/06/26 00:20:40;;;;;;;13.38;9.23;;;;;;;14.62;71.09;96155.31;2115928;28;20403;-65
2023/06/26 00:21:46;;;;;;;13.05;9.18;;;;;;;14.62;71.11;96160.53;2115984;28;20054;-65
2023/06/26 00:22:50;;;;;;;14.00;10.05;;;;;;;14.62;71.77;96163.16;2115719;28;20024;-65
2023/06/26 00:23:51;;;;;;;14.18;9.98;;;;;;;14.60;71.62;96157.19;2106234;28;20538;-65
2023/06/26 00:24:52;;;;;;;13.93;9.60;;;;;;;14.51;71.68;96143.72;2097423;28;20063;-65
2023/06/26 00:25:53;;;;;;;12.63;8.95;;;;;;;14.56;71.65;96152.13;2106614;28;20051;-65
2023/06/26 00:26:54;;;;;;;13.10;9.82;;;;;;;14.54;71.75;96154.03;2115597;28;20059;-65
2023/06/26 00:27:56;;;;;;;13.98;9.60;;;;;;;14.56;71.98;96161.75;2114990;28;20150;-65
2023/06/26 00:28:57;;;;;;;13.93;10.07;;;;;;;14.54;71.64;96161.00;2115730;28;20039;-65
2023/06/26 00:29:58;;;;;;;13.75;10.27;;;;;;;14.53;71.93;96156.72;2106692;28;20044;-65
2023/06/26 00:30:59;;;;;;;13.10;10.23;;;;;;;14.52;71.97;96157.63;2106012;28;20052;-65
2023/06/26 00:32:00;;;;;;;15.27;9.93;;;;;;;14.42;72.17;96140.81;2098107;28;20067;-65
2023/06/26 00:33:01;;;;;;;12.63;9.23;;;;;;;14.47;71.88;96157.06;2106628;28;20043;-64
2023/06/26 00:34:02;;;;;;;12.35;9.50;;;;;;;14.44;72.48;96152.84;2114989;28;20048;-65
2023/06/26 00:35:04;;;;;;;15.05;10.32;;;;;;;14.45;72.57;96149.31;2105982;28;20059;-65
2023/06/26 00:36:05;;;;;;;11.68;8.85;;;;;;;14.42;72.69;96148.66;2106349;28;20036;-64
2023/06/26 00:37:06;;;;;;;12.68;9.55;;;;;;;14.46;73.38;96152.75;2106009;28;20054;-64
2023/06/26 00:38:07;;;;;;;12.50;9.32;;;;;;;14.47;72.70;96151.84;2098420;28;20048;-64
2023/06/26 00:39:09;;;;;;;13.80;10.00;;;;;;;14.49;72.83;96152.59;2105907;28;20495;-65
2023/06/26 00:40:10;;;;;;;14.38;9.30;;;;;;;14.49;73.02;96152.59;2115237;28;20165;-64
2023/06/26 00:41:12;;;;;;;13.93;9.60;;;;;;;14.48;72.72;96150.88;2115840;28;20482;-64
2023/06/26 00:42:13;;;;;;;15.25;9.73;;;;;;;14.49;72.86;96148.19;2114509;28;20066;-64
2023/06/26 00:43:14;;;;;;;13.05;9.32;;;;;;;14.51;72.89;96154.19;2106600;28;20048;-65
2023/06/26 00:44:16;;;;;;;12.55;8.70;;;;;;;14.46;73.18;96145.78;2105478;28;20052;-64
2023/06/26 00:45:17;;;;;;;14.82;9.50;;;;;;;14.49;73.24;96149.97;2115656;28;20479;-64
2023/06/26 00:46:18;;;;;;;13.45;9.70;;;;;;;14.46;73.60;96147.53;2106354;28;20433;-64
2023/06/26 00:47:19;;;;;;;13.60;9.88;;;;;;;14.44;73.67;96152.84;2106676;28;20048;-64
2023/06/26 00:48:20;;;;;;;16.08;9.73;;;;;;;14.44;73.41;96157.25;2106233;28;20059;-64
2023/06/26 00:49:22;;;;;;;14.25;10.00;;;;;;;14.41;73.02;96153.06;2089716;28;20494;-64
2023/06/26 00:50:23;;;;;;;14.00;10.15;;;;;;;14.34;72.92;96144.72;2097638;28;20059;-65
2023/06/26 00:51:24;;;;;;;12.15;8.90;;;;;;;14.38;73.61;96144.53;2080923;28;20057;-65
2023/06/26 00:52:25;;;;;;;13.10;9.38;;;;;;;14.38;73.45;96149.75;2089879;28;20049;-65
2023/06/26 00:53:26;;;;;;;13.82;9.13;;;;;;;14.37;73.45;96150.69;2106054;28;20052;-65
2023/06/26 00:54:27;;;;;;;13.77;9.35;;;;;;;14.39;74.00;96149.69;2089581;28;20045;-65
2023/06/26 00:55:29;;;;;;;13.95;9.82;;;;;;;14.37;73.73;96145.47;2073450;28;20045;-65
2023/06/26 00:56:31;;;;;;;11.25;8.95;;;;;;;14.44;73.89;96149.41;2080983;28;20057;-65
2023/06/26 00:57:32;;;;;;;13.35;8.95;;;;;;;14.46;73.47;96156.22;2089838;28;20040;-65
2023/06/26 00:58:34;;;;;;;13.68;9.73;;;;;;;14.45;73.66;96151.91;2090346;28;20053;-65
2023/06/26 00:59:36;;;;;;;12.23;8.77;;;;;;;14.43;73.09;96148.56;2098180;28;20507;-65
2023/06/26 01:00:37;;;;;;;12.73;8.88;;;;;;;14.41;73.20;96150.44;2098104;28;20040;-65
2023/06/26 01:01:38;;;;;;;12.68;8.90;;;;;;;14.36;73.20;96135.97;2097373;28;20056;-65
2023/06/26 01:02:39;;;;;;;14.07;9.25;;;;;;;14.41;72.82;96147.81;2106274;28;20491;-65
2023/06/26 01:03:40;;;;;;;13.77;8.88;;;;;;;14.41;72.95;96154.81;2106453;28;20054;-65
2023/06/26 01:04:46;;;;;;;12.70;8.68;;;;;;;14.39;73.08;96151.47;2106328;28;20039;-64
2023/06/26 01:05:49;;;;;;;11.50;8.75;;;;;;;14.38;73.07;96147.16;2089875;28;20044;-64
2023/06/26 01:06:52;;;;;;;14.02;9.32;;;;;;;14.35;73.22;96150.78;2083556;28;20053;-64
2023/06/26 01:07:53;;;;;;;12.95;9.45;;;;;;;14.31;73.07;96144.91;2090188;28;20040;-64
2023/06/26 01:08:54;;;;;;;13.25;9.82;;;;;;;14.30;73.85;96152.81;2089651;28;20040;-64
2023/06/26 01:09:55;;;;;;;15.70;9.40;;;;;;;14.29;73.85;96153.78;2097747;28;20036;-64
2023/06/26 01:10:56;;;;;;;14.20;9.65;;;;;;;14.26;73.94;96146.13;2108976;28;20040;-64
2023/06/26 01:11:58;;;;;;;12.93;9.10;;;;;;;14.22;73.45;96142.00;2089347;28;20052;-64
2023/06/26 01:12:59;;;;;;;14.98;9.20;;;;;;;14.21;73.75;96154.22;2080924;28;20056;-64
2023/06/26 01:14:01;;;;;;;15.27;9.65;;;;;;;14.19;74.13;96150.00;2081258;28;20539;-64
2023/06/26 01:15:02;;;;;;;13.63;9.30;;;;;;;14.14;74.02;96139.88;2073630;28;20049;-65
2023/06/26 01:16:03;;;;;;;14.00;9.77;;;;;;;14.17;74.13;96141.44;2089544;28;20037;-63
2023/06/26 01:17:04;;;;;;;12.38;9.07;;;;;;;14.03;74.35;96126.56;2106095;28;20051;-65
2023/06/26 01:18:05;;;;;;;12.93;9.35;;;;;;;14.12;74.18;96146.94;2097336;28;20063;-66
2023/06/26 01:19:10;;;;;;;11.70;9.02;;;;;;;14.12;74.01;96139.09;2089735;28;20066;-66
2023/06/26 01:20:11;;;;;;;13.38;8.85;;;;;;;14.15;73.66;96146.75;2089859;28;20056;-66
2023/06/26 01:21:12;;;;;;;13.85;9.90;;;;;;;14.15;73.69;96143.31;2089809;28;20502;-63
2023/06/26 01:22:19;;;;;;;14.55;9.63;;;;;;;14.17;73.66;96147.50;2081401;28;20060;-65
2023/06/26 01:23:24;;;;;;;13.10;9.70;;;;;;;14.19;73.17;96142.19;2098587;28;20048;-65
2023/06/26 01:24:27;;;;;;;11.38;8.73;;;;;;;14.19;73.45;96140.41;2098080;28;20040;-65
2023/06/26 01:25:44;;;;;;;13.68;9.70;;;;;;;14.20;72.83;96139.50;2096725;28;20439;-65
2023/06/26 01:26:45;;;;;;;15.45;9.90;;;;;;;14.19;73.12;96142.19;2101924;28;20176;-65
2023/06/26 01:27:50;;;;;;;11.90;9.23;;;;;;;14.17;73.17;96137.06;2097715;28;20412;-65
2023/06/26 01:28:51;;;;;;;14.65;9.80;;;;;;;14.16;73.10;96147.59;2089698;28;20119;-65
2023/06/26 01:29:52;;;;;;;13.93;9.98;;;;;;;14.12;73.62;96133.88;2081235;28;20055;-65
2023/06/26 01:30:53;;;;;;;14.20;9.85;;;;;;;14.05;73.27;96124.72;2080995;28;20496;-65
2023/06/26 01:31:54;;;;;;;13.68;9.10;;;;;;;14.07;73.39;96131.53;2081406;28;20061;-65
2023/06/26 01:32:56;;;;;;;13.82;10.27;;;;;;;14.07;73.79;96130.69;2097767;28;20036;-65
2023/06/26 01:34:00;;;;;;;14.80;9.68;;;;;;;13.95;73.70;96108.75;2096988;28;20061;-65
2023/06/26 01:35:01;;;;;;;13.35;9.48;;;;;;;14.04;73.66;96130.88;2082305;28;20056;-65
2023/06/26 01:36:04;;;;;;;13.95;10.15;;;;;;;13.99;73.97;96118.09;2089907;28;20092;-65
2023/06/26 01:37:06;;;;;;;14.57;10.00;;;;;;;13.96;73.62;96110.44;2089046;28;20053;-65
2023/06/26 01:38:16;;;;;;;14.57;9.93;;;;;;;13.97;73.57;96111.28;2089857;28;20528;-65
2023/06/26 01:39:18;;;;;;;15.40;10.52;;;;;;;14.04;73.57;96129.09;2106692;28;20455;-65
2023/06/26 01:40:19;;;;;;;15.35;10.35;;;;;;;14.04;73.34;96123.06;2114276;28;20056;-65
2023/06/26 01:41:21;;;;;;;14.02;9.95;;;;;;;13.99;73.24;96120.69;2106128;28;20048;-65
2023/06/26 01:42:22;;;;;;;13.52;10.05;;;;;;;14.01;73.03;96118.84;2106163;28;20048;-65
2023/06/26 01:43:56;;;;;;;13.93;9.88;;;;;;;13.98;72.83;96120.78;2105258;28;20056;-65
2023/06/26 01:44:57;;;;;;;12.75;9.75;;;;;;;13.99;72.59;96119.88;2097410;28;20404;-65
2023/06/26 01:46:01;;;;;;;12.93;9.63;;;;;;;13.91;72.47;96117.69;2081857;28;20108;-64
2023/06/26 01:47:03;;;;;;;14.73;10.20;;;;;;;13.97;72.97;96122.56;2082212;28;20072;-65
2023/06/26 01:48:04;;;;;;;12.88;10.30;;;;;;;13.93;72.75;96121.06;2098007;28;20048;-63
2023/06/26 01:49:18;;;;;;;13.43;10.23;;;;;;;13.86;73.49;96123.19;2097803;28;20049;-65
2023/06/26 01:50:23;;;;;;;15.45;11.00;;;;;;;13.88;73.38;96121.34;2084624;28;20061;-65
2023/06/26 01:51:29;;;;;;;13.43;10.43;;;;;;;13.75;73.33;96107.31;2091245;28;20059;-65
2023/06/26 01:53:02;;;;;;;12.68;9.82;;;;;;;13.85;73.49;96124.13;2081957;28;20056;-65
2023/06/26 01:54:03;;;;;;;16.73;9.77;;;;;;;13.80;73.57;96115.72;2064916;28;20223;-64
2023/06/26 01:55:26;;;;;;;13.77;10.00;;;;;;;13.80;73.35;96123.56;2079140;28;20061;-65
2023/06/26 01:56:28;;;;;;;13.80;9.55;;;;;;;13.66;73.51;96100.88;2095333;28;20499;-65
2023/06/26 01:57:30;;;;;;;15.50;9.85;;;;;;;13.76;73.49;96126.41;2089241;28;20378;-64
2023/06/26 01:58:31;;;;;;;12.82;10.18;;;;;;;13.76;73.42;96118.59;2081224;28;20057;-65
2023/06/26 01:59:32;;;;;;;13.13;9.77;;;;;;;13.74;74.09;96123.03;2089481;28;20068;-65
2023/06/26 02:00:33;;;;;;;14.30;10.20;;;;;;;13.71;73.93;96124.06;2089263;28;20044;-65
2023/06/26 02:01:34;;;;;;;13.65;9.82;;;;;;;13.70;73.83;96113.72;2088902;28;20068;-65
2023/06/26 02:02:35;;;;;;;15.52;9.90;;;;;;;13.65;73.94;96120.03;2097497;28;20045;-66
2023/06/26 02:03:36;;;;;;;12.88;9.20;;;;;;;13.65;74.32;96121.81;2105496;28;20052;-65
2023/06/26 02:04:37;;;;;;;12.18;9.40;;;;;;;13.62;74.42;96117.59;2105886;28;20039;-65
2023/06/26 02:05:40;;;;;;;13.07;9.68;;;;;;;13.62;73.97;96116.78;2106036;28;20039;-65
2023/06/26 02:06:41;;;;;;;13.60;9.43;;;;;;;13.62;74.47;96120.22;2097247;28;20075;-65
2023/06/26 02:07:43;;;;;;;15.73;10.02;;;;;;;13.61;74.76;96121.16;2105839;28;20063;-65
2023/06/26 02:08:44;;;;;;;14.10;9.93;;;;;;;13.60;74.62;96116.00;2114902;28;20047;-65
2023/06/26 02:09:45;;;;;;;15.63;11.00;;;;;;;13.59;74.72;96123.00;2114731;28;20035;-65
2023/06/26 02:10:46;;;;;;;13.98;10.25;;;;;;;13.58;75.03;96117.88;2114814;28;20040;-65
2023/06/26 02:11:48;;;;;;;14.27;10.60;;;;;;;13.59;74.48;96125.63;2105345;28;20074;-65
2023/06/26 02:12:49;;;;;;;13.05;9.35;;;;;;;13.57;74.90;96127.47;2097722;28;20051;-65
2023/06/26 02:13:50;;;;;;;13.82;10.38;;;;;;;13.57;74.68;96124.03;2096971;28;20040;-65
2023/06/26 02:14:51;;;;;;;14.60;10.45;;;;;;;13.55;75.06;96124.13;2097578;28;20057;-65
2023/06/26 02:15:57;;;;;;;14.15;10.80;;;;;;;13.54;75.38;96129.41;2097463;28;20075;-65
2023/06/26 02:17:00;;;;;;;15.82;11.50;;;;;;;13.54;75.65;96129.41;2105897;28;20051;-65
2023/06/26 02:18:01;;;;;;;15.50;10.25;;;;;;;13.54;75.22;96132.88;2105830;28;20040;-65
2023/06/26 02:19:02;;;;;;;15.38;10.38;;;;;;;13.52;75.17;96131.28;2105147;28;20048;-65
2023/06/26 02:20:03;;;;;;;14.05;10.40;;;;;;;13.52;75.28;96131.28;2114772;28;20036;-65
2023/06/26 02:21:04;;;;;;;13.88;10.20;;;;;;;13.48;75.34;96124.56;2114794;28;20043;-65
2023/06/26 02:22:05;;;;;;;14.05;10.07;;;;;;;13.51;75.49;96134.81;2114557;28;20047;-65
2023/06/26 02:23:06;;;;;;;14.15;10.23;;;;;;;13.46;75.97;96125.47;2114846;28;20036;-65
2023/06/26 02:24:10;;;;;;;13.18;10.23;;;;;;;13.45;75.62;96131.63;2105202;28;20047;-64
2023/06/26 02:25:12;;;;;;;15.68;10.65;;;;;;;13.37;75.43;96117.34;2105630;28;20048;-64
2023/06/26 02:26:13;;;;;;;14.48;9.82;;;;;;;13.45;75.49;96134.22;2113862;28;20058;-65
2023/06/26 02:27:17;;;;;;;13.38;9.75;;;;;;;13.44;76.14;96131.69;2105664;28;20048;-65
2023/06/26 02:28:18;;;;;;;14.98;10.80;;;;;;;13.43;75.83;96130.88;2105806;28;20483;-65
2023/06/26 02:29:19;;;;;;;14.10;10.30;;;;;;;13.46;75.58;96130.69;2114901;28;20047;-65
2023/06/26 02:30:20;;;;;;;13.88;9.18;;;;;;;13.48;75.33;96140.22;2105944;28;20095;-65
2023/06/26 02:31:21;;;;;;;13.23;10.10;;;;;;;13.47;75.40;96136.75;2105892;28;20095;-65
2023/06/26 02:32:22;;;;;;;15.25;10.20;;;;;;;13.48;75.14;96135.00;2114686;28;20047;-65
2023/06/26 02:33:24;;;;;;;12.90;9.80;;;;;;;13.48;75.53;96129.78;2114683;28;20047;-65
2023/06/26 02:34:25;;;;;;;13.93;10.20;;;;;;;13.45;75.36;96126.41;2114719;28;20044;-65
2023/06/26 02:35:28;;;;;;;13.00;9.40;;;;;;;13.45;74.95;96131.63;2105528;28;20393;-65
2023/06/26 02:36:29;;;;;;;13.00;10.02;;;;;;;13.32;75.72;96104.56;2097333;28;20055;-65
2023/06/26 02:37:30;;;;;;;15.30;10.40;;;;;;;13.43;75.29;96124.81;2105789;28;20091;-65
2023/06/26 02:38:31;;;;;;;13.52;10.50;;;;;;;13.43;75.07;96125.66;2105706;28;20446;-65
2023/06/26 02:39:34;;;;;;;15.57;11.00;;;;;;;13.41;75.29;96130.09;2105244;28;20063;-64
2023/06/26 02:40:35;;;;;;;15.38;10.73;;;;;;;13.41;75.25;96130.09;2114620;28;20047;-65
2023/06/26 02:41:37;;;;;;;14.93;9.85;;;;;;;13.41;75.04;96132.72;2105026;28;20408;-65
2023/06/26 02:42:39;;;;;;;14.32;9.88;;;;;;;13.31;75.02;96118.53;2105193;28;20067;-65
2023/06/26 02:43:40;;;;;;;13.50;10.27;;;;;;;13.40;75.62;96133.66;2105628;28;20040;-65
2023/06/26 02:44:41;;;;;;;13.73;10.05;;;;;;;13.39;75.23;96134.59;2105184;28;20056;-65
2023/06/26 02:45:42;;;;;;;14.43;10.07;;;;;;;13.38;75.43;96139.88;2105799;28;20522;-65
2023/06/26 02:46:44;;;;;;;17.35;10.63;;;;;;;13.37;75.49;96133.81;2105555;28;20060;-65
2023/06/26 02:47:45;;;;;;;13.35;10.35;;;;;;;13.36;75.63;96136.50;2097454;28;20500;-65
2023/06/26 02:48:46;;;;;;;14.25;10.82;;;;;;;13.36;75.94;96139.13;2099223;28;20148;-65
2023/06/26 02:49:47;;;;;;;13.05;9.85;;;;;;;13.32;75.33;96130.63;2099103;28;20044;-65
2023/06/26 02:50:49;;;;;;;14.68;10.52;;;;;;;13.33;75.73;96134.91;2098843;28;20052;-65
2023/06/26 02:51:50;;;;;;;15.45;10.32;;;;;;;13.33;75.86;96131.47;2106950;28;20048;-65
2023/06/26 02:53:02;;;;;;;14.25;10.75;;;;;;;13.16;75.80;96101.09;2106495;28;20054;-65
2023/06/26 02:54:04;;;;;;;15.43;10.10;;;;;;;13.25;75.80;96116.22;2098985;28;20506;-65
2023/06/26 02:55:05;;;;;;;13.02;10.63;;;;;;;13.36;75.59;96142.56;2106366;28;20376;-66
2023/06/26 02:56:06;;;;;;;15.35;10.25;;;;;;;13.39;75.12;96134.59;2098402;28;20167;-65
2023/06/26 02:57:08;;;;;;;15.18;10.15;;;;;;;13.40;75.15;96138.88;2099100;28;20048;-64
2023/06/26 02:58:10;;;;;;;15.05;10.38;;;;;;;13.47;74.55;96144.56;2099020;28;20405;-65
2023/06/26 02:59:13;;;;;;;13.60;9.85;;;;;;;13.46;75.11;96138.50;2106427;28;20063;-65
2023/06/26 03:00:15;;;;;;;13.13;9.38;;;;;;;13.53;74.77;96132.97;2099115;28;20048;-65
2023/06/26 03:01:21;;;;;;;15.13;10.32;;;;;;;13.50;74.44;96133.13;2099700;28;20055;-65
2023/06/26 03:02:23;;;;;;;13.77;10.00;;;;;;;13.52;74.32;96139.09;2098508;28;20516;-65
2023/06/26 03:03:24;;;;;;;14.15;10.40;;;;;;;13.50;74.03;96136.59;2098946;28;20040;-65
2023/06/26 03:04:25;;;;;;;16.27;10.68;;;;;;;13.49;74.17;96134.88;2107032;28;20110;-64
2023/06/26 03:05:26;;;;;;;14.57;10.48;;;;;;;13.46;74.24;96138.50;2115354;28;20055;-65
2023/06/26 03:06:27;;;;;;;16.55;10.75;;;;;;;13.47;74.06;96136.75;2106966;28;20068;-64
2023/06/26 03:07:29;;;;;;;15.50;10.43;;;;;;;13.51;73.81;96137.44;2098828;28;20048;-65
2023/06/26 03:08:30;;;;;;;17.35;11.05;;;;;;;13.46;73.92;96132.47;2106682;28;20422;-65
2023/06/26 03:09:31;;;;;;;14.82;11.32;;;;;;;13.36;73.30;96119.09;2107098;28;20525;-65
2023/06/26 03:10:32;;;;;;;16.10;10.55;;;;;;;13.42;73.32;96126.59;2098154;28;20075;-65
2023/06/26 03:11:33;;;;;;;15.43;10.95;;;;;;;13.43;73.87;96132.63;2098745;28;20043;-65
2023/06/26 03:12:35;;;;;;;13.60;10.63;;;;;;;13.42;73.39;96134.41;2098150;28;20057;-65
2023/06/26 03:13:36;;;;;;;14.73;10.73;;;;;;;13.42;73.58;96125.75;2098151;28;20452;-65
2023/06/26 03:14:37;;;;;;;15.68;11.73;;;;;;;13.43;73.25;96125.66;2107355;28;20474;-65
2023/06/26 03:15:38;;;;;;;16.40;10.90;;;;;;;13.45;73.33;96125.56;2106639;28;20056;-65
2023/06/26 03:16:40;;;;;;;15.80;10.95;;;;;;;13.41;73.40;96119.66;2098914;28;20044;-65
2023/06/26 03:17:42;;;;;;;14.48;10.32;;;;;;;13.49;72.93;96126.22;2098725;28;20094;-65
2023/06/26 03:18:47;;;;;;;16.88;10.63;;;;;;;13.51;72.54;96124.38;2098069;28;20044;-65
2023/06/26 03:19:48;;;;;;;13.07;10.35;;;;;;;13.51;72.32;96125.22;2098368;28;20048;-65
2023/06/26 03:21:04;;;;;;;15.43;10.75;;;;;;;13.54;72.17;96129.41;2100138;28;20455;-64
2023/06/26 03:22:05;;;;;;;14.23;9.85;;;;;;;13.46;72.46;96114.19;2106512;28;20048;-64
2023/06/26 03:23:07;;;;;;;15.32;10.18;;;;;;;13.57;71.71;96124.03;2107134;28;20040;-65
2023/06/26 03:24:08;;;;;;;16.10;10.30;;;;;;;13.60;71.83;96124.69;2107173;28;20526;-64
2023/06/26 03:25:09;;;;;;;14.85;10.00;;;;;;;13.51;71.91;96108.72;2107828;28;20111;-64
2023/06/26 03:26:10;;;;;;;15.77;10.27;;;;;;;13.61;71.72;96122.94;2106244;28;20055;-65
2023/06/26 03:27:12;;;;;;;13.15;9.75;;;;;;;13.60;71.35;96119.47;2098684;28;20052;-65
2023/06/26 03:28:14;;;;;;;14.70;10.32;;;;;;;13.60;71.98;96121.22;2098074;28;20059;-65
2023/06/26 03:29:15;;;;;;;13.52;10.05;;;;;;;13.60;71.58;96121.22;2106924;28;20470;-65
2023/06/26 03:30:16;;;;;;;14.20;10.20;;;;;;;13.61;71.48;96125.53;2106519;28;20059;-65
2023/06/26 03:31:20;;;;;;;14.70;10.15;;;;;;;13.57;71.76;96111.81;2106539;28;20067;-65
2023/06/26 03:32:21;;;;;;;13.70;10.40;;;;;;;13.59;71.81;96122.19;2107075;28;20053;-65
2023/06/26 03:33:22;;;;;;;13.50;10.02;;;;;;;13.65;71.29;96120.03;2107579;28;20059;-65
2023/06/26 03:34:23;;;;;;;12.82;9.70;;;;;;;13.65;71.31;96121.81;2107129;28;20059;-65
2023/06/26 03:35:24;;;;;;;13.80;9.75;;;;;;;13.65;71.18;96120.03;2098695;28;20415;-64
2023/06/26 03:36:26;;;;;;;15.35;10.48;;;;;;;13.65;71.14;96120.03;2107151;28;20051;-65
2023/06/26 03:37:27;;;;;;;12.77;9.60;;;;;;;13.66;71.32;96128.72;2107712;28;20051;-65
2023/06/26 03:38:28;;;;;;;13.13;10.15;;;;;;;13.67;71.13;96119.97;2107280;28;20418;-64
2023/06/26 03:39:31;;;;;;;15.25;9.90;;;;;;;13.69;71.00;96123.34;2098792;28;20511;-65
2023/06/26 03:40:32;;;;;;;16.33;10.20;;;;;;;13.70;71.02;96119.78;2098778;28;20053;-65
2023/06/26 03:41:33;;;;;;;14.07;9.15;;;;;;;13.66;71.35;96115.69;2107167;28;20052;-65
2023/06/26 03:42:34;;;;;;;13.82;9.75;;;;;;;13.73;70.88;96122.22;2098085;28;20462;-65
2023/06/26 03:43:36;;;;;;;14.95;10.27;;;;;;;13.74;70.86;96125.66;2106306;28;20048;-65
2023/06/26 03:44:51;;;;;;;15.25;10.00;;;;;;;13.75;71.03;96117.75;2106041;28;20055;-65
2023/06/26 03:45:53;;;;;;;14.75;10.05;;;;;;;13.70;70.19;96111.94;2098846;28;20044;-65
2023/06/26 03:46:55;;;;;;;12.38;10.00;;;;;;;13.81;70.32;96127.00;2098156;28;20045;-65
2023/06/26 03:47:56;;;;;;;13.82;9.88;;;;;;;13.83;70.39;96125.97;2097957;28;20067;-65
2023/06/26 03:48:57;;;;;;;13.77;9.50;;;;;;;13.88;70.53;96118.72;2107009;28;20043;-65
2023/06/26 03:49:58;;;;;;;12.90;9.40;;;;;;;13.91;70.50;96122.94;2107025;28;20047;-65
2023/06/26 03:51:02;;;;;;;15.60;10.13;;;;;;;13.94;70.17;96121.91;2106825;28;20047;-65
2023/06/26 03:52:03;;;;;;;13.75;9.93;;;;;;;13.97;70.31;96121.72;2106935;28;20066;-65
2023/06/26 03:53:04;;;;;;;14.25;9.75;;;;;;;13.99;69.73;96123.31;2107169;28;20048;-65
2023/06/26 03:54:05;;;;;;;13.38;9.30;;;;;;;14.02;70.01;96122.28;2106316;28;20451;-65
2023/06/26 03:55:06;;;;;;;15.23;9.95;;;;;;;14.04;69.84;96125.66;2106802;28;20095;-65
2023/06/26 03:56:07;;;;;;;13.35;9.45;;;;;;;14.07;69.41;96125.47;2107566;28;20040;-65
2023/06/26 03:57:08;;;;;;;14.10;10.18;;;;;;;14.00;69.43;96111.94;2107092;28;20044;-65
2023/06/26 03:58:09;;;;;;;13.20;9.32;;;;;;;14.10;69.38;96128.75;2106220;28;20060;-65
2023/06/26 03:59:12;;;;;;;14.43;9.65;;;;;;;14.12;69.69;96120.81;2105749;28;20048;-65
2023/06/26 04:00:14;;;;;;;13.75;10.50;;;;;;;14.11;69.26;96121.75;2097114;28;20049;-65
2023/06/26 04:01:19;;;;;;;14.50;10.07;;;;;;;14.19;69.40;96126.50;2106774;28;20452;-64
2023/06/26 04:02:21;;;;;;;14.05;9.77;;;;;;;14.20;68.76;96122.97;2106649;28;20054;-65
2023/06/26 04:03:22;;;;;;;15.95;9.68;;;;;;;14.25;69.19;96124.38;2106246;28;20055;-64
2023/06/26 04:04:23;;;;;;;13.77;9.93;;;;;;;14.27;69.37;96124.28;2107558;28;20444;-65
2023/06/26 04:05:24;;;;;;;14.70;10.07;;;;;;;14.30;68.70;96124.97;2107134;28;20048;-65
2023/06/26 04:06:25;;;;;;;14.02;9.27;;;;;;;14.32;68.65;96120.47;2098210;28;20056;-65
2023/06/26 04:07:26;;;;;;;14.10;9.10;;;;;;;14.34;68.57;96129.03;2106932;28;20507;-65
2023/06/26 04:08:28;;;;;;;13.63;9.20;;;;;;;14.39;68.95;96125.34;2106236;28;20052;-65
2023/06/26 04:09:30;;;;;;;13.32;10.07;;;;;;;14.46;68.20;96126.63;2089322;28;20423;-64
2023/06/26 04:10:31;;;;;;;13.90;9.48;;;;;;;14.50;67.77;96131.56;2090324;28;20056;-65
2023/06/26 04:11:32;;;;;;;14.63;9.85;;;;;;;14.51;67.79;96125.44;2106188;28;20056;-65
2023/06/26 04:12:34;;;;;;;12.93;9.55;;;;;;;14.56;68.14;96133.00;2090041;28;20531;-65
2023/06/26 04:13:35;;;;;;;12.23;9.13;;;;;;;14.58;67.97;96123.31;2081790;28;20045;-65
2023/06/26 04:14:36;;;;;;;13.75;9.90;;;;;;;14.52;68.21;96111.47;2098346;28;20048;-65
2023/06/26 04:15:37;;;;;;;13.98;10.13;;;;;;;14.63;67.98;96125.66;2099004;28;20048;-65
2023/06/26 04:16:38;;;;;;;14.50;9.82;;;;;;;14.66;68.28;96125.47;2099061;28;20044;-65
2023/06/26 04:17:39;;;;;;;13.95;10.07;;;;;;;14.68;67.98;96129.66;2099122;28;20083;-65
2023/06/26 04:18:40;;;;;;;14.57;9.13;;;;;;;14.71;67.51;96123.41;2098934;28;20048;-65
2023/06/26 04:19:41;;;;;;;13.32;9.57;;;;;;;14.73;67.16;96124.16;2098520;28;20403;-65
2023/06/26 04:21:11;;;;;;;13.45;9.50;;;;;;;14.76;67.97;96122.19;2099125;28;20045;-65
2023/06/26 04:22:12;;;;;;;14.40;9.50;;;;;;;14.81;67.51;96132.38;2098290;28;20052;-65
2023/06/26 04:23:13;;;;;;;13.75;10.40;;;;;;;14.74;67.61;96117.97;2098092;28;20500;-65
2023/06/26 04:24:14;;;;;;;17.80;10.50;;;;;;;14.85;67.35;96131.22;2098790;28;20047;-65
2023/06/26 04:25:15;;;;;;;13.93;10.63;;;;;;;14.89;67.05;96137.94;2098770;28;20041;-65
2023/06/26 04:26:16;;;;;;;14.95;10.40;;;;;;;14.91;67.11;96127.38;2098929;28;20081;-65
2023/06/26 04:27:18;;;;;;;18.30;10.60;;;;;;;14.97;66.87;96146.16;2098760;28;20048;-65
2023/06/26 04:28:19;;;;;;;14.23;10.27;;;;;;;14.97;66.91;96143.53;2098852;28;20055;-65
2023/06/26 04:29:21;;;;;;;13.55;9.63;;;;;;;15.01;66.83;96146.81;2097850;28;20052;-65
2023/06/26 04:30:22;;;;;;;14.00;10.90;;;;;;;15.06;66.91;96141.28;2098325;28;20051;-65
2023/06/26 04:31:23;;;;;;;13.93;10.68;;;;;;;15.11;66.58;96144.47;2098536;28;20059;-65
2023/06/26 04:32:24;;;;;;;14.25;10.73;;;;;;;15.15;66.79;96138.09;2098819;28;20083;-65
2023/06/26 04:33:25;;;;;;;15.07;11.15;;;;;;;15.11;66.81;96126.97;2098487;28;20056;-65
2023/06/26 04:34:27;;;;;;;13.23;10.32;;;;;;;15.23;66.19;96148.91;2098847;28;20044;-65
2023/06/26 04:35:28;;;;;;;15.15;10.75;;;;;;;15.25;66.35;96141.81;2098910;28;20048;-65
2023/06/26 04:36:30;;;;;;;16.95;10.50;;;;;;;15.30;66.47;96139.72;2098762;28;20057;-65
2023/06/26 04:37:31;;;;;;;14.23;10.70;;;;;;;15.36;66.00;96135.88;2098742;28;20056;-65
2023/06/26 04:38:32;;;;;;;15.23;10.80;;;;;;;15.38;66.05;96134.84;2098837;28;20048;-65
2023/06/26 04:39:33;;;;;;;13.25;9.98;;;;;;;15.45;66.00;96143.16;2098719;28;20118;-65
2023/06/26 04:40:34;;;;;;;16.67;10.48;;;;;;;15.50;65.63;96141.06;2098445;28;20075;-64
2023/06/26 04:41:35;;;;;;;16.52;11.00;;;;;;;15.53;65.26;96142.63;2098748;28;20059;-64
2023/06/26 04:42:37;;;;;;;17.67;11.05;;;;;;;15.55;64.99;96131.13;2098883;28;20059;-64
2023/06/26 04:43:39;;;;;;;13.07;10.63;;;;;;;15.61;65.66;96141.22;2098294;28;20056;-65
2023/06/26 04:44:40;;;;;;;14.02;9.95;;;;;;;15.64;65.32;96140.19;2098742;28;20040;-65
2023/06/26 04:45:41;;;;;;;16.98;10.98;;;;;;;15.71;64.67;96145.88;2098871;28;20040;-64
2023/06/26 04:46:43;;;;;;;15.27;10.80;;;;;;;15.59;65.12;96127.41;2098620;28;20048;-64
2023/06/26 04:47:44;;;;;;;13.45;10.25;;;;;;;15.77;64.53;96146.34;2098866;28;20115;-66